createdAt,value
2019-05-02T00:00:14.415Z,7.90
2019-05-02T00:02:43.032Z,7.90
2019-05-02T00:05:12.254Z,7.90
2019-05-02T00:07:42.953Z,7.80
2019-05-02T00:10:14.967Z,7.80
2019-05-02T00:12:45.000Z,7.80
2019-05-02T00:15:17.043Z,7.70
2019-05-02T00:17:44.681Z,7.70
2019-05-02T00:20:14.526Z,7.70
2019-05-02T00:22:43.062Z,7.70
2019-05-02T00:25:15.927Z,7.70
2019-05-02T00:27:42.094Z,7.60
2019-05-02T00:30:11.231Z,7.60
2019-05-02T00:32:39.686Z,7.60
2019-05-02T00:35:08.687Z,7.50
2019-05-02T00:37:37.232Z,7.50
2019-05-02T00:40:06.793Z,7.50
2019-05-02T00:42:35.611Z,7.50
2019-05-02T00:45:05.248Z,7.40
2019-05-02T00:47:35.482Z,7.40
2019-05-02T00:50:11.182Z,7.40
2019-05-02T00:52:37.821Z,7.30
2019-05-02T00:55:06.969Z,7.30
2019-05-02T00:57:35.866Z,7.30
2019-05-02T01:00:07.027Z,7.30
2019-05-02T01:02:43.394Z,7.30
2019-05-02T01:05:13.365Z,7.20
2019-05-02T01:07:41.845Z,7.20
2019-05-02T01:10:12.039Z,7.20
2019-05-02T01:12:44.369Z,7.20
2019-05-02T01:15:11.026Z,7.10
2019-05-02T01:17:39.840Z,7.10
2019-05-02T01:20:08.815Z,7.10
2019-05-02T01:22:37.268Z,7.10
2019-05-02T01:25:15.081Z,7.10
2019-05-02T01:27:46.600Z,7.10
2019-05-02T01:30:20.649Z,7.10
2019-05-02T01:32:53.790Z,7.10
2019-05-02T01:35:40.846Z,7.00
2019-05-02T01:38:26.278Z,7.00
2019-05-02T01:40:54.941Z,7.00
2019-05-02T01:43:29.575Z,7.00
2019-05-02T01:45:58.321Z,7.00
2019-05-02T01:48:27.394Z,6.90
2019-05-02T01:50:56.030Z,6.90
2019-05-02T01:53:29.353Z,6.90
2019-05-02T01:55:57.363Z,6.90
2019-05-02T01:58:25.251Z,6.90
2019-05-02T02:00:54.257Z,6.80
2019-05-02T02:03:32.255Z,6.80
2019-05-02T02:06:02.923Z,6.80
2019-05-02T02:08:32.599Z,6.80
2019-05-02T02:11:02.216Z,6.80
2019-05-02T02:13:31.284Z,6.80
2019-05-02T02:16:04.560Z,6.80
2019-05-02T02:18:33.130Z,6.80
2019-05-02T02:21:25.636Z,6.80
2019-05-02T02:23:53.086Z,6.80
2019-05-02T02:26:25.516Z,6.80
2019-05-02T02:28:54.157Z,6.90
2019-05-02T02:31:23.132Z,6.90
2019-05-02T02:33:51.889Z,7.00
2019-05-02T02:36:29.924Z,7.00
2019-05-02T02:38:50.728Z,7.10
2019-05-02T02:41:19.175Z,7.20
2019-05-02T02:43:54.823Z,7.30
2019-05-02T02:46:30.841Z,7.30
2019-05-02T02:48:59.723Z,7.40
2019-05-02T02:51:28.647Z,7.40
2019-05-02T02:54:03.920Z,7.50
2019-05-02T02:56:34.328Z,7.50
2019-05-02T02:59:02.565Z,7.50
2019-05-02T03:01:31.327Z,7.60
2019-05-02T03:04:01.870Z,7.60
2019-05-02T03:06:30.751Z,7.70
2019-05-02T03:08:59.237Z,7.70
2019-05-02T03:11:29.868Z,7.70
2019-05-02T03:14:09.129Z,7.70
2019-05-02T03:16:47.454Z,7.80
2019-05-02T03:19:14.848Z,7.80
2019-05-02T03:21:45.538Z,7.90
2019-05-02T03:24:13.992Z,7.90
2019-05-02T03:26:48.557Z,8.00
2019-05-02T03:29:15.681Z,8.00
2019-05-02T03:31:44.458Z,8.10
2019-05-02T03:34:15.050Z,8.10
2019-05-02T03:36:44.295Z,8.10
2019-05-02T03:39:14.736Z,8.10
2019-05-02T03:41:43.753Z,8.10
2019-05-02T03:44:24.687Z,8.10
2019-05-02T03:46:43.679Z,8.10
2019-05-02T03:49:13.141Z,8.10
2019-05-02T03:51:41.965Z,8.10
2019-05-02T03:54:10.675Z,8.20
2019-05-02T03:56:44.879Z,8.20
2019-05-02T03:59:12.090Z,8.20
2019-05-02T04:01:41.521Z,8.20
2019-05-02T04:04:14.061Z,8.20
2019-05-02T04:06:41.844Z,8.30
2019-05-02T04:09:13.343Z,8.30
2019-05-02T04:11:41.897Z,8.40
2019-05-02T04:14:17.742Z,8.40
2019-05-02T04:16:41.304Z,8.40
2019-05-02T04:19:09.751Z,8.40
2019-05-02T04:21:40.427Z,8.40
2019-05-02T04:24:15.091Z,8.40
2019-05-02T04:26:39.527Z,8.50
2019-05-02T04:29:10.693Z,8.50
2019-05-02T04:31:39.115Z,8.60
2019-05-02T04:34:14.920Z,8.60
2019-05-02T04:36:38.594Z,8.60
2019-05-02T04:39:15.169Z,8.60
2019-05-02T04:41:39.270Z,8.60
2019-05-02T04:44:09.083Z,8.60
2019-05-02T04:46:38.772Z,8.60
2019-05-02T04:49:09.199Z,8.70
2019-05-02T04:51:38.463Z,8.80
2019-05-02T04:54:09.242Z,8.80
2019-05-02T04:56:42.114Z,8.80
2019-05-02T04:59:17.812Z,8.80
2019-05-02T05:01:49.028Z,8.90
2019-05-02T05:04:09.333Z,9.00
2019-05-02T05:06:40.743Z,9.00
2019-05-02T05:09:10.353Z,9.10
2019-05-02T05:11:38.341Z,9.10
2019-05-02T05:14:07.159Z,9.10
2019-05-02T05:16:37.319Z,9.10
2019-05-02T05:19:07.694Z,9.20
2019-05-02T05:21:37.406Z,9.30
2019-05-02T05:24:07.811Z,9.30
2019-05-02T05:26:42.733Z,9.30
2019-05-02T05:29:08.288Z,9.30
2019-05-02T05:31:38.239Z,9.40
2019-05-02T05:34:07.803Z,9.50
2019-05-02T05:36:37.612Z,9.70
2019-05-02T05:39:08.594Z,9.80
2019-05-02T05:41:37.806Z,9.80
2019-05-02T05:44:07.818Z,9.90
2019-05-02T05:46:40.579Z,9.90
2019-05-02T05:49:10.575Z,9.90
2019-05-02T05:51:37.504Z,10.00
2019-05-02T05:54:07.766Z,10.00
2019-05-02T05:56:41.883Z,10.00
2019-05-02T05:59:07.779Z,10.00
2019-05-02T06:01:38.431Z,10.10
2019-05-02T06:04:08.054Z,10.10
2019-05-02T06:06:37.754Z,10.20
2019-05-02T06:09:08.624Z,10.30
2019-05-02T06:11:37.134Z,10.30
2019-05-02T06:14:06.169Z,10.30
2019-05-02T06:16:35.388Z,10.20
2019-05-02T06:19:04.174Z,10.30
2019-05-02T06:21:32.636Z,10.20
2019-05-02T06:24:01.463Z,10.20
2019-05-02T06:26:29.882Z,10.20
2019-05-02T06:28:58.290Z,10.20
2019-05-02T06:31:26.909Z,10.20
2019-05-02T06:33:55.313Z,10.20
2019-05-02T06:36:23.750Z,10.20
2019-05-02T06:38:56.491Z,10.30
2019-05-02T06:41:22.623Z,10.30
2019-05-02T06:43:51.150Z,10.40
2019-05-02T06:46:21.609Z,10.40
2019-05-02T06:48:52.264Z,10.40
2019-05-02T06:51:21.750Z,10.50
2019-05-02T06:53:50.344Z,10.50
2019-05-02T06:56:18.785Z,10.50
2019-05-02T06:58:47.436Z,10.60
2019-05-02T07:01:16.136Z,10.50
2019-05-02T07:03:47.444Z,10.60
2019-05-02T07:06:16.356Z,10.50
2019-05-02T07:08:45.057Z,10.50
2019-05-02T07:11:13.662Z,10.50
2019-05-02T07:13:43.796Z,10.60
2019-05-02T07:16:15.638Z,10.70
2019-05-02T07:18:49.675Z,10.70
2019-05-02T07:21:23.249Z,10.70
2019-05-02T07:23:53.151Z,10.80
2019-05-02T07:26:21.101Z,10.80
2019-05-02T07:28:49.477Z,10.70
2019-05-02T07:31:17.902Z,10.70
2019-05-02T07:33:46.505Z,10.70
2019-05-02T07:36:15.074Z,10.80
2019-05-02T07:38:43.601Z,10.90
2019-05-02T07:41:13.953Z,11.00
2019-05-02T07:43:42.398Z,11.00
2019-05-02T07:46:10.897Z,11.00
2019-05-02T07:48:39.646Z,11.10
2019-05-02T07:51:08.046Z,11.20
2019-05-02T07:53:36.466Z,11.30
2019-05-02T07:56:05.196Z,11.50
2019-05-02T07:58:37.978Z,11.70
2019-05-02T08:01:07.967Z,11.80
2019-05-02T08:03:34.830Z,11.70
2019-05-02T08:06:03.593Z,11.70
2019-05-02T08:08:32.027Z,11.80
2019-05-02T08:11:03.189Z,11.60
2019-05-02T08:13:31.536Z,11.50
2019-05-02T08:16:00.172Z,11.50
2019-05-02T08:18:30.352Z,11.50
2019-05-02T08:20:59.335Z,11.30
2019-05-02T08:23:29.467Z,11.10
2019-05-02T08:25:58.129Z,11.00
2019-05-02T08:28:28.954Z,11.10
2019-05-02T08:30:57.932Z,11.20
2019-05-02T08:33:29.234Z,11.30
2019-05-02T08:35:56.637Z,11.30
2019-05-02T08:38:25.286Z,11.40
2019-05-02T08:40:54.156Z,11.30
2019-05-02T08:43:22.679Z,11.40
2019-05-02T08:45:51.276Z,11.50
2019-05-02T08:48:22.598Z,11.50
2019-05-02T08:50:51.022Z,11.50
2019-05-02T08:53:20.454Z,11.50
2019-05-02T08:55:49.792Z,11.50
2019-05-02T08:58:18.390Z,11.60
2019-05-02T09:00:47.471Z,11.40
2019-05-02T09:03:16.287Z,11.40
2019-05-02T09:05:45.989Z,11.40
2019-05-02T09:08:16.696Z,11.40
2019-05-02T09:10:46.485Z,11.50
2019-05-02T09:13:17.964Z,11.80
2019-05-02T09:15:49.625Z,12.00
2019-05-02T09:18:15.510Z,12.10
2019-05-02T09:20:47.053Z,12.30
2019-05-02T09:23:14.102Z,12.50
2019-05-02T09:25:43.134Z,12.60
2019-05-02T09:28:12.478Z,12.70
2019-05-02T09:30:46.823Z,12.80
2019-05-02T09:33:14.964Z,13.20
2019-05-02T09:35:43.437Z,13.30
2019-05-02T09:38:12.915Z,13.50
2019-05-02T09:40:42.714Z,13.60
2019-05-02T09:43:12.223Z,13.30
2019-05-02T09:45:43.703Z,13.40
2019-05-02T09:48:12.533Z,13.60
2019-05-02T09:50:42.189Z,14.30
2019-05-02T09:53:13.091Z,14.80
2019-05-02T09:55:49.617Z,15.00
2019-05-02T09:58:19.645Z,15.40
2019-05-02T10:00:52.505Z,16.30
2019-05-02T10:03:22.617Z,17.50
2019-05-02T10:05:52.304Z,18.00
2019-05-02T10:08:22.796Z,18.80
2019-05-02T10:10:53.506Z,17.60
2019-05-02T10:13:24.781Z,17.60
2019-05-02T10:15:53.268Z,18.80
2019-05-02T10:18:28.647Z,19.40
2019-05-02T10:20:52.594Z,19.20
2019-05-02T10:23:23.218Z,19.40
2019-05-02T10:25:52.171Z,18.60
2019-05-02T10:28:22.909Z,17.60
2019-05-02T10:30:55.251Z,16.90
2019-05-02T10:33:22.566Z,18.00
2019-05-02T10:35:52.520Z,18.60
2019-05-02T10:38:22.771Z,18.90
2019-05-02T10:40:54.681Z,17.90
2019-05-02T10:43:27.394Z,18.10
2019-05-02T10:46:03.449Z,18.80
2019-05-02T10:48:33.585Z,18.90
2019-05-02T10:51:09.191Z,19.40
2019-05-02T10:53:38.000Z,20.10
2019-05-02T10:56:06.414Z,19.70
2019-05-02T10:58:35.835Z,19.80
2019-05-02T11:01:06.813Z,20.10
2019-05-02T11:03:43.736Z,20.80
2019-05-02T11:06:09.645Z,21.00
2019-05-02T11:08:44.039Z,21.40
2019-05-02T11:11:08.552Z,20.90
2019-05-02T11:13:52.687Z,19.90
2019-05-02T11:16:23.254Z,19.50
2019-05-02T11:19:09.812Z,19.50
2019-05-02T11:21:38.316Z,19.50
2019-05-02T11:24:06.790Z,20.20
2019-05-02T11:26:36.413Z,20.50
2019-05-02T11:29:05.562Z,20.50
2019-05-02T11:31:33.998Z,20.90
2019-05-02T11:34:02.745Z,21.40
2019-05-02T11:36:32.791Z,21.10
2019-05-02T11:39:16.118Z,20.50
2019-05-02T11:41:35.455Z,19.80
2019-05-02T11:44:04.355Z,19.70
2019-05-02T11:46:33.139Z,20.40
2019-05-02T11:49:02.679Z,20.80
2019-05-02T11:51:32.710Z,21.00
2019-05-02T11:54:05.283Z,21.00
2019-05-02T11:56:32.959Z,21.20
2019-05-02T11:59:02.816Z,21.60
2019-05-02T12:01:37.184Z,21.80
2019-05-02T12:04:03.009Z,21.50
2019-05-02T12:06:33.114Z,20.80
2019-05-02T12:09:02.156Z,21.00
2019-05-02T12:11:32.396Z,21.40
2019-05-02T12:14:01.793Z,21.80
2019-05-02T12:16:32.303Z,21.30
2019-05-02T12:19:09.428Z,20.90
2019-05-02T12:21:32.549Z,20.10
2019-05-02T12:24:02.276Z,20.20
2019-05-02T12:26:32.375Z,20.20
2019-05-02T12:29:02.589Z,19.90
2019-05-02T12:31:32.850Z,20.20
2019-05-02T12:34:03.471Z,20.60
2019-05-02T12:36:33.376Z,20.60
2019-05-02T12:39:02.561Z,20.20
2019-05-02T12:41:33.089Z,20.20
2019-05-02T12:44:02.369Z,19.90
2019-05-02T12:46:31.764Z,19.40
2019-05-02T12:49:02.623Z,19.50
2019-05-02T12:51:32.004Z,19.80
2019-05-02T12:54:02.289Z,19.70
2019-05-02T12:56:32.408Z,19.90
2019-05-02T12:59:02.432Z,19.90
2019-05-02T13:01:33.024Z,19.40
2019-05-02T13:04:03.330Z,18.80
2019-05-02T13:06:32.800Z,18.30
2019-05-02T13:09:03.130Z,18.10
2019-05-02T13:11:36.899Z,18.20
2019-05-02T13:14:18.340Z,18.40
2019-05-02T13:16:37.923Z,18.80
2019-05-02T13:19:06.586Z,18.80
2019-05-02T13:21:45.169Z,18.60
2019-05-02T13:24:29.489Z,18.60
2019-05-02T13:26:59.698Z,18.80
2019-05-02T13:29:28.932Z,19.10
2019-05-02T13:32:16.973Z,19.30
2019-05-02T13:34:59.159Z,19.60
2019-05-02T13:37:28.731Z,18.90
2019-05-02T13:40:11.974Z,18.30
2019-05-02T13:42:41.753Z,18.40
2019-05-02T13:45:15.417Z,18.70
2019-05-02T13:47:44.376Z,18.70
2019-05-02T13:50:13.188Z,18.50
2019-05-02T13:52:44.985Z,18.10
2019-05-02T13:55:14.296Z,17.70
2019-05-02T13:57:46.845Z,17.50
2019-05-02T14:00:15.384Z,17.30
2019-05-02T14:02:43.997Z,17.00
2019-05-02T14:05:14.602Z,16.80
2019-05-02T14:07:48.249Z,16.70
2019-05-02T14:10:17.026Z,16.60
2019-05-02T14:12:47.286Z,16.20
2019-05-02T14:15:18.674Z,15.90
2019-05-02T14:17:47.244Z,15.70
2019-05-02T14:20:19.198Z,15.50
2019-05-02T14:22:47.768Z,15.30
2019-05-02T14:25:16.314Z,15.20
2019-05-02T14:27:47.060Z,15.10
2019-05-02T14:30:16.474Z,14.90
2019-05-02T14:32:45.263Z,14.80
2019-05-02T14:35:18.694Z,14.70
2019-05-02T14:37:47.489Z,14.60
2019-05-02T14:40:24.067Z,14.50
2019-05-02T14:42:57.721Z,14.50
2019-05-02T14:45:30.717Z,14.50
2019-05-02T14:48:00.350Z,14.40
2019-05-02T14:50:26.807Z,14.40
2019-05-02T14:52:56.894Z,14.40
2019-05-02T14:55:26.231Z,14.40
2019-05-02T14:57:57.157Z,14.50
2019-05-02T15:00:33.385Z,14.60
2019-05-02T15:02:57.648Z,14.60
2019-05-02T15:05:29.482Z,14.60
2019-05-02T15:07:56.924Z,14.60
2019-05-02T15:10:26.741Z,14.60
2019-05-02T15:12:59.499Z,14.60
2019-05-02T15:15:27.952Z,14.50
2019-05-02T15:17:55.790Z,14.50
2019-05-02T15:20:36.577Z,14.50
2019-05-02T15:22:54.432Z,14.50
2019-05-02T15:25:23.440Z,14.50
2019-05-02T15:27:58.175Z,14.50
2019-05-02T15:30:24.005Z,14.50
2019-05-02T15:33:00.372Z,14.60
2019-05-02T15:35:36.394Z,14.60
2019-05-02T15:38:06.900Z,14.70
2019-05-02T15:40:47.176Z,14.70
2019-05-02T15:43:09.482Z,14.70
2019-05-02T15:45:36.734Z,14.80
2019-05-02T15:48:06.135Z,14.80
2019-05-02T15:50:34.559Z,14.70
2019-05-02T15:53:09.985Z,14.60
2019-05-02T15:55:39.333Z,14.40
2019-05-02T15:58:16.935Z,14.20
2019-05-02T16:00:46.035Z,13.90
2019-05-02T16:03:14.767Z,13.80
2019-05-02T16:05:45.054Z,13.60
2019-05-02T16:08:13.356Z,13.50
2019-05-02T16:10:42.829Z,13.50
2019-05-02T16:13:16.890Z,13.40
2019-05-02T16:15:43.293Z,13.30
2019-05-02T16:18:12.731Z,13.30
2019-05-02T16:20:49.237Z,13.30
2019-05-02T16:23:18.979Z,13.20
2019-05-02T16:25:48.211Z,13.10
2019-05-02T16:28:16.833Z,13.00
2019-05-02T16:30:47.610Z,12.90
2019-05-02T16:33:19.677Z,12.80
2019-05-02T16:35:51.567Z,12.80
2019-05-02T16:38:16.760Z,12.80
2019-05-02T16:40:45.393Z,12.80
2019-05-02T16:43:14.088Z,12.70
2019-05-02T16:45:43.891Z,12.70
2019-05-02T16:48:12.550Z,12.70
2019-05-02T16:50:42.091Z,12.60
2019-05-02T16:53:11.789Z,12.70
2019-05-02T16:55:43.405Z,12.70
2019-05-02T16:58:11.867Z,12.70
2019-05-02T17:00:42.569Z,12.80
2019-05-02T17:03:12.527Z,12.80
2019-05-02T17:05:44.403Z,12.70
2019-05-02T17:08:22.604Z,12.80
2019-05-02T17:10:57.051Z,12.70
2019-05-02T17:13:27.512Z,12.70
2019-05-02T17:15:55.955Z,12.70
2019-05-02T17:18:24.574Z,12.60
2019-05-02T17:20:56.637Z,12.60
2019-05-02T17:23:23.383Z,12.60
2019-05-02T17:25:52.270Z,12.60
2019-05-02T17:28:22.292Z,12.60
2019-05-02T17:30:52.527Z,12.60
2019-05-02T17:33:21.849Z,12.60
2019-05-02T17:35:52.281Z,12.60
2019-05-02T17:38:27.691Z,12.60
2019-05-02T17:40:53.861Z,12.60
2019-05-02T17:43:22.708Z,12.60
2019-05-02T17:45:51.374Z,12.60
2019-05-02T17:48:20.096Z,12.60
2019-05-02T17:50:55.925Z,12.50
2019-05-02T17:53:19.774Z,12.50
2019-05-02T17:55:48.252Z,12.50
2019-05-02T17:58:16.815Z,12.50
2019-05-02T18:00:47.420Z,12.40
2019-05-02T18:03:16.835Z,12.40
2019-05-02T18:05:45.429Z,12.40
2019-05-02T18:08:14.832Z,12.40
2019-05-02T18:10:43.675Z,12.30
2019-05-02T18:13:12.286Z,12.30
2019-05-02T18:15:41.674Z,12.30
2019-05-02T18:18:10.719Z,12.30
2019-05-02T18:20:42.879Z,12.30
2019-05-02T18:23:12.293Z,12.20
2019-05-02T18:25:41.303Z,12.20
2019-05-02T18:28:15.918Z,12.30
2019-05-02T18:30:41.593Z,12.20
2019-05-02T18:33:15.723Z,12.30
2019-05-02T18:35:47.024Z,12.30
2019-05-02T18:38:15.886Z,12.30
2019-05-02T18:40:45.958Z,12.20
2019-05-02T18:43:14.379Z,12.20
2019-05-02T18:45:42.868Z,12.20
2019-05-02T18:48:21.903Z,12.20
2019-05-02T18:50:52.447Z,12.20
2019-05-02T18:53:24.307Z,12.20
2019-05-02T18:55:52.002Z,12.20
2019-05-02T18:58:22.580Z,12.10
2019-05-02T19:00:54.332Z,12.10
2019-05-02T19:03:23.142Z,12.10
2019-05-02T19:05:57.364Z,12.20
2019-05-02T19:08:30.704Z,12.20
2019-05-02T19:11:04.613Z,12.20
2019-05-02T19:13:23.938Z,12.20
2019-05-02T19:15:53.437Z,12.20
2019-05-02T19:18:22.169Z,12.20
2019-05-02T19:20:57.594Z,12.20
2019-05-02T19:23:26.487Z,12.20
2019-05-02T19:25:55.310Z,12.10
2019-05-02T19:28:34.736Z,12.10
2019-05-02T19:31:06.719Z,12.10
2019-05-02T19:33:37.522Z,12.10
2019-05-02T19:36:03.263Z,12.10
2019-05-02T19:38:34.661Z,12.10
2019-05-02T19:41:05.578Z,12.00
2019-05-02T19:43:35.003Z,12.00
2019-05-02T19:46:03.586Z,12.00
2019-05-02T19:48:32.914Z,12.00
2019-05-02T19:51:02.951Z,12.00
2019-05-02T19:53:32.404Z,12.00
2019-05-02T19:56:03.000Z,12.00
2019-05-02T19:58:36.883Z,12.00
2019-05-02T20:01:03.157Z,12.00
2019-05-02T20:03:32.299Z,12.00
2019-05-02T20:06:05.799Z,11.90
2019-05-02T20:08:32.752Z,12.00
2019-05-02T20:11:02.185Z,11.90
2019-05-02T20:13:32.686Z,11.90
2019-05-02T20:16:06.051Z,11.90
2019-05-02T20:18:42.418Z,11.90
2019-05-02T20:21:11.757Z,11.70
2019-05-02T20:23:37.914Z,11.60
2019-05-02T20:26:09.514Z,11.60
2019-05-02T20:28:36.877Z,11.50
2019-05-02T20:31:05.925Z,11.40
2019-05-02T20:33:34.562Z,11.40
2019-05-02T20:36:03.130Z,11.40
2019-05-02T20:38:32.540Z,11.40
2019-05-02T20:41:02.910Z,11.40
2019-05-02T20:43:32.274Z,11.30
2019-05-02T20:46:02.604Z,11.30
2019-05-02T20:48:32.250Z,11.20
2019-05-02T20:51:02.713Z,11.00
2019-05-02T20:53:33.938Z,10.90
2019-05-02T20:56:01.927Z,10.80
2019-05-02T20:58:32.494Z,10.70
2019-05-02T21:01:07.776Z,10.70
2019-05-02T21:03:32.025Z,10.60
2019-05-02T21:06:12.254Z,10.50
2019-05-02T21:08:45.252Z,10.40
2019-05-02T21:11:14.685Z,10.30
2019-05-02T21:13:43.173Z,10.20
2019-05-02T21:16:12.520Z,10.10
2019-05-02T21:18:42.308Z,10.00
2019-05-02T21:21:12.605Z,10.00
2019-05-02T21:23:47.016Z,10.00
2019-05-02T21:26:11.665Z,9.90
2019-05-02T21:28:42.814Z,9.90
2019-05-02T21:31:12.120Z,9.80
2019-05-02T21:33:42.813Z,9.80
2019-05-02T21:36:12.045Z,9.70
2019-05-02T21:38:42.678Z,9.60
2019-05-02T21:41:12.931Z,9.60
2019-05-02T21:43:42.550Z,9.60
2019-05-02T21:46:11.206Z,9.60
2019-05-02T21:48:41.827Z,9.60
2019-05-02T21:51:12.199Z,9.50
2019-05-02T21:53:58.635Z,9.40
2019-05-02T21:56:37.918Z,9.40
2019-05-02T21:59:07.571Z,9.40
2019-05-02T22:01:42.203Z,9.40
2019-05-02T22:04:12.923Z,9.30
2019-05-02T22:06:42.698Z,9.30
2019-05-02T22:09:12.471Z,9.30
2019-05-02T22:11:42.957Z,9.30
2019-05-02T22:14:13.351Z,9.20
2019-05-02T22:16:42.178Z,9.20
2019-05-02T22:19:11.695Z,9.20
2019-05-02T22:21:40.183Z,9.20
2019-05-02T22:24:11.686Z,9.20
2019-05-02T22:26:39.117Z,9.20
2019-05-02T22:29:09.162Z,9.20
2019-05-02T22:31:38.098Z,9.20
2019-05-02T22:34:06.650Z,9.20
2019-05-02T22:36:35.070Z,9.10
2019-05-02T22:39:18.531Z,9.10
2019-05-02T22:41:46.948Z,9.20
2019-05-02T22:44:15.938Z,9.20
2019-05-02T22:46:45.455Z,9.30
2019-05-02T22:49:15.091Z,9.30
2019-05-02T22:51:44.324Z,9.40
2019-05-02T22:54:30.435Z,9.40
2019-05-02T22:56:54.502Z,9.40
2019-05-02T22:59:24.049Z,9.40
2019-05-02T23:01:52.954Z,9.40
2019-05-02T23:04:23.252Z,9.50
2019-05-02T23:06:53.131Z,9.50
2019-05-02T23:09:22.001Z,9.50
2019-05-02T23:12:10.361Z,9.60
2019-05-02T23:14:41.754Z,9.60
2019-05-02T23:17:09.830Z,9.70
2019-05-02T23:19:38.259Z,9.70
2019-05-02T23:22:06.974Z,9.70
2019-05-02T23:24:39.855Z,9.70
2019-05-02T23:27:13.122Z,9.70
2019-05-02T23:29:42.449Z,9.70
2019-05-02T23:32:11.082Z,9.70
2019-05-02T23:34:41.666Z,9.70
2019-05-02T23:37:09.645Z,9.80
2019-05-02T23:39:38.485Z,9.70
2019-05-02T23:42:06.910Z,9.70
2019-05-02T23:44:35.350Z,9.70
2019-05-02T23:47:04.317Z,9.70
2019-05-02T23:49:32.792Z,9.70
2019-05-02T23:52:02.297Z,9.70
2019-05-02T23:54:32.448Z,9.70
2019-05-02T23:57:01.159Z,9.70
2019-05-02T23:59:31.808Z,9.80
